sensor_id;sensor_type;location;lat;lon;timestamp;temperature;humidity
3466;DHT22;1747;48.884;9.160;2024-03-23T00:53:40;9.20;99.90
3466;DHT22;1747;48.884;9.160;2024-03-23T00:56:06;9.30;99.90
3466;DHT22;1747;48.884;9.160;2024-03-23T00:58:34;9.30;99.90
3466;DHT22;1747;48.884;9.160;2024-03-23T01:01:00;9.40;99.90
3466;DHT22;1747;48.884;9.160;2024-03-23T01:03:29;9.30;99.90
3466;DHT22;1747;48.884;9.160;2024-03-23T01:05:54;9.30;99.90
3466;DHT22;1747;48.884;9.160;2024-03-23T01:08:25;9.30;99.90
3466;DHT22;1747;48.884;9.160;2024-03-23T01:10:54;9.30;99.90
3466;DHT22;1747;48.884;9.160;2024-03-23T01:13:21;9.30;99.90
3466;DHT22;1747;48.884;9.160;2024-03-23T01:15:50;9.40;99.90
3466;DHT22;1747;48.884;9.160;2024-03-23T01:18:17;9.40;99.90
3466;DHT22;1747;48.884;9.160;2024-03-23T01:20:44;9.40;99.90
3466;DHT22;1747;48.884;9.160;2024-03-23T01:23:10;9.60;99.90
3466;DHT22;1747;48.884;9.160;2024-03-23T01:25:37;9.90;99.90
3466;DHT22;1747;48.884;9.160;2024-03-23T01:28:03;10.30;99.90
3466;DHT22;1747;48.884;9.160;2024-03-23T01:30:31;10.60;99.90
3466;DHT22;1747;48.884;9.160;2024-03-23T01:32:59;10.60;99.90
3466;DHT22;1747;48.884;9.160;2024-03-23T01:35:26;10.80;99.90
3466;DHT22;1747;48.884;9.160;2024-03-23T01:37:51;10.90;99.90
3466;DHT22;1747;48.884;9.160;2024-03-23T01:40:18;11.00;99.90
3466;DHT22;1747;48.884;9.160;2024-03-23T01:42:55;11.20;99.90
3466;DHT22;1747;48.884;9.160;2024-03-23T01:45:22;11.30;99.90
3466;DHT22;1747;48.884;9.160;2024-03-23T01:47:50;11.50;99.90
3466;DHT22;1747;48.884;9.160;2024-03-23T01:50:18;11.60;99.90
3466;DHT22;1747;48.884;9.160;2024-03-23T01:52:44;11.80;99.90
3466;DHT22;1747;48.884;9.160;2024-03-23T01:55:11;11.80;99.90
3466;DHT22;1747;48.884;9.160;2024-03-23T01:57:37;12.00;99.90
3466;DHT22;1747;48.884;9.160;2024-03-23T02:00:05;12.10;99.90
3466;DHT22;1747;48.884;9.160;2024-03-23T02:02:32;12.20;99.90
3466;DHT22;1747;48.884;9.160;2024-03-23T02:04:58;12.30;99.90
3466;DHT22;1747;48.884;9.160;2024-03-23T02:07:26;12.30;99.90
3466;DHT22;1747;48.884;9.160;2024-03-23T02:09:53;12.40;99.90
3466;DHT22;1747;48.884;9.160;2024-03-23T02:12:19;12.50;99.90
3466;DHT22;1747;48.884;9.160;2024-03-23T02:14:47;12.50;99.90
3466;DHT22;1747;48.884;9.160;2024-03-23T02:17:13;12.50;99.90
3466;DHT22;1747;48.884;9.160;2024-03-23T02:19:40;12.60;99.90
3466;DHT22;1747;48.884;9.160;2024-03-23T02:22:06;12.70;99.90
3466;DHT22;1747;48.884;9.160;2024-03-23T02:24:34;12.70;99.90
3466;DHT22;1747;48.884;9.160;2024-03-23T02:27:01;12.70;99.90
3466;DHT22;1747;48.884;9.160;2024-03-23T02:29:28;12.70;99.90
3466;DHT22;1747;48.884;9.160;2024-03-23T02:31:54;12.70;99.90
3466;DHT22;1747;48.884;9.160;2024-03-23T02:34:20;12.80;99.90
3466;DHT22;1747;48.884;9.160;2024-03-23T02:36:47;12.80;99.90
3466;DHT22;1747;48.884;9.160;2024-03-23T02:39:13;12.80;99.90
3466;DHT22;1747;48.884;9.160;2024-03-23T02:41:42;12.80;99.90
3466;DHT22;1747;48.884;9.160;2024-03-23T02:44:07;12.80;99.90
3466;DHT22;1747;48.884;9.160;2024-03-23T02:46:37;12.80;99.90
3466;DHT22;1747;48.884;9.160;2024-03-23T02:49:03;12.80;99.90
3466;DHT22;1747;48.884;9.160;2024-03-23T02:51:30;12.80;99.90
3466;DHT22;1747;48.884;9.160;2024-03-23T02:53:56;12.80;99.90
3466;DHT22;1747;48.884;9.160;2024-03-23T02:56:23;12.90;99.90
3466;DHT22;1747;48.884;9.160;2024-03-23T02:58:50;12.90;99.90
3466;DHT22;1747;48.884;9.160;2024-03-23T03:01:17;12.90;99.90
3466;DHT22;1747;48.884;9.160;2024-03-23T03:03:43;12.90;99.90
3466;DHT22;1747;48.884;9.160;2024-03-23T03:06:10;12.90;99.90
3466;DHT22;1747;48.884;9.160;2024-03-23T03:08:36;12.80;99.90
3466;DHT22;1747;48.884;9.160;2024-03-23T03:11:03;12.70;99.90
3466;DHT22;1747;48.884;9.160;2024-03-23T03:13:28;12.60;99.90
3466;DHT22;1747;48.884;9.160;2024-03-23T03:15:57;12.50;99.90
3466;DHT22;1747;48.884;9.160;2024-03-23T03:18:24;12.40;99.90
3466;DHT22;1747;48.884;9.160;2024-03-23T03:20:54;12.20;99.90
3466;DHT22;1747;48.884;9.160;2024-03-23T03:23:20;12.20;99.90
3466;DHT22;1747;48.884;9.160;2024-03-23T03:25:47;12.20;99.90
3466;DHT22;1747;48.884;9.160;2024-03-23T03:28:13;12.10;99.90
3466;DHT22;1747;48.884;9.160;2024-03-23T03:30:39;11.90;99.90
3466;DHT22;1747;48.884;9.160;2024-03-23T03:33:07;11.90;99.90
3466;DHT22;1747;48.884;9.160;2024-03-23T03:35:34;11.80;99.90
3466;DHT22;1747;48.884;9.160;2024-03-23T03:37:59;11.80;99.90
3466;DHT22;1747;48.884;9.160;2024-03-23T03:40:26;11.60;99.90
3466;DHT22;1747;48.884;9.160;2024-03-23T03:42:52;11.60;99.90
3466;DHT22;1747;48.884;9.160;2024-03-23T03:45:19;11.60;99.90
3466;DHT22;1747;48.884;9.160;2024-03-23T03:47:45;11.50;99.90
3466;DHT22;1747;48.884;9.160;2024-03-23T03:50:13;11.50;99.90
3466;DHT22;1747;48.884;9.160;2024-03-23T03:52:39;11.40;99.90
3466;DHT22;1747;48.884;9.160;2024-03-23T03:55:12;11.30;99.90
3466;DHT22;1747;48.884;9.160;2024-03-23T03:57:38;11.30;99.90
3466;DHT22;1747;48.884;9.160;2024-03-23T04:00:06;11.10;99.90
3466;DHT22;1747;48.884;9.160;2024-03-23T04:02:32;11.00;99.90
3466;DHT22;1747;48.884;9.160;2024-03-23T04:04:59;11.00;99.90
3466;DHT22;1747;48.884;9.160;2024-03-23T04:07:26;10.80;99.90
3466;DHT22;1747;48.884;9.160;2024-03-23T04:09:53;10.60;99.90
3466;DHT22;1747;48.884;9.160;2024-03-23T04:12:19;10.50;99.90
3466;DHT22;1747;48.884;9.160;2024-03-23T04:14:46;10.50;99.90
3466;DHT22;1747;48.884;9.160;2024-03-23T04:17:12;10.50;99.90
3466;DHT22;1747;48.884;9.160;2024-03-23T04:19:38;10.50;99.90
3466;DHT22;1747;48.884;9.160;2024-03-23T04:22:05;10.50;99.90
3466;DHT22;1747;48.884;9.160;2024-03-23T04:24:33;10.70;99.90
3466;DHT22;1747;48.884;9.160;2024-03-23T04:26:59;10.70;99.90
3466;DHT22;1747;48.884;9.160;2024-03-23T04:29:25;10.90;99.90
3466;DHT22;1747;48.884;9.160;2024-03-23T04:31:52;11.10;99.90
3466;DHT22;1747;48.884;9.160;2024-03-23T04:34:19;11.50;99.90
3466;DHT22;1747;48.884;9.160;2024-03-23T04:36:45;11.60;99.90
3466;DHT22;1747;48.884;9.160;2024-03-23T04:39:12;11.70;99.90
3466;DHT22;1747;48.884;9.160;2024-03-23T04:41:40;11.60;99.90
3466;DHT22;1747;48.884;9.160;2024-03-23T04:44:07;11.60;99.90
3466;DHT22;1747;48.884;9.160;2024-03-23T04:46:34;11.60;99.90
3466;DHT22;1747;48.884;9.160;2024-03-23T04:49:00;11.60;99.90
3466;DHT22;1747;48.884;9.160;2024-03-23T04:51:26;11.70;99.90
3466;DHT22;1747;48.884;9.160;2024-03-23T04:53:53;11.60;99.90
3466;DHT22;1747;48.884;9.160;2024-03-23T04:56:20;11.60;99.90
3466;DHT22;1747;48.884;9.160;2024-03-23T04:58:48;11.60;99.90
3466;DHT22;1747;48.884;9.160;2024-03-23T05:01:14;11.70;99.90
3466;DHT22;1747;48.884;9.160;2024-03-23T05:03:42;11.70;99.90
3466;DHT22;1747;48.884;9.160;2024-03-23T05:06:07;11.70;99.90
3466;DHT22;1747;48.884;9.160;2024-03-23T05:08:34;11.80;99.90
3466;DHT22;1747;48.884;9.160;2024-03-23T05:11:00;11.70;99.90
3466;DHT22;1747;48.884;9.160;2024-03-23T05:13:27;11.60;99.90
3466;DHT22;1747;48.884;9.160;2024-03-23T05:15:55;11.60;99.90
3466;DHT22;1747;48.884;9.160;2024-03-23T05:18:23;11.60;99.90
3466;DHT22;1747;48.884;9.160;2024-03-23T05:20:55;11.60;99.90
3466;DHT22;1747;48.884;9.160;2024-03-23T05:23:23;11.60;99.90
3466;DHT22;1747;48.884;9.160;2024-03-23T05:25:48;11.50;99.90
3466;DHT22;1747;48.884;9.160;2024-03-23T05:28:16;11.50;99.90
3466;DHT22;1747;48.884;9.160;2024-03-23T05:30:42;11.50;99.90
3466;DHT22;1747;48.884;9.160;2024-03-23T05:33:10;11.40;99.90
3466;DHT22;1747;48.884;9.160;2024-03-23T05:35:36;11.20;99.90
3466;DHT22;1747;48.884;9.160;2024-03-23T05:38:03;11.20;99.90
3466;DHT22;1747;48.884;9.160;2024-03-23T05:40:28;11.10;99.90
3466;DHT22;1747;48.884;9.160;2024-03-23T05:42:56;11.10;99.90
3466;DHT22;1747;48.884;9.160;2024-03-23T05:45:22;11.10;99.90
3466;DHT22;1747;48.884;9.160;2024-03-23T05:47:49;11.10;99.90
3466;DHT22;1747;48.884;9.160;2024-03-23T05:50:16;11.00;99.90
3466;DHT22;1747;48.884;9.160;2024-03-23T05:52:45;10.90;99.90
3466;DHT22;1747;48.884;9.160;2024-03-23T05:55:11;10.80;99.90
3466;DHT22;1747;48.884;9.160;2024-03-23T05:57:38;10.70;99.90
3466;DHT22;1747;48.884;9.160;2024-03-23T06:00:06;10.70;99.90
3466;DHT22;1747;48.884;9.160;2024-03-23T06:02:41;10.60;99.90
3466;DHT22;1747;48.884;9.160;2024-03-23T06:05:07;10.60;99.90
3466;DHT22;1747;48.884;9.160;2024-03-23T06:07:35;10.60;99.90
3466;DHT22;1747;48.884;9.160;2024-03-23T06:10:01;10.60;99.90
3466;DHT22;1747;48.884;9.160;2024-03-23T06:12:28;10.60;99.90
3466;DHT22;1747;48.884;9.160;2024-03-23T06:14:54;10.60;99.90
3466;DHT22;1747;48.884;9.160;2024-03-23T06:17:21;10.50;99.90
3466;DHT22;1747;48.884;9.160;2024-03-23T06:19:47;10.40;99.90
3466;DHT22;1747;48.884;9.160;2024-03-23T06:22:14;10.30;99.90
3466;DHT22;1747;48.884;9.160;2024-03-23T06:24:41;10.30;99.90
3466;DHT22;1747;48.884;9.160;2024-03-23T06:27:08;10.30;99.90
3466;DHT22;1747;48.884;9.160;2024-03-23T06:29:34;10.30;99.90
3466;DHT22;1747;48.884;9.160;2024-03-23T06:32:02;10.20;99.90
3466;DHT22;1747;48.884;9.160;2024-03-23T06:34:29;10.30;99.90
3466;DHT22;1747;48.884;9.160;2024-03-23T06:36:55;10.30;99.90
3466;DHT22;1747;48.884;9.160;2024-03-23T06:39:21;10.20;99.90
3466;DHT22;1747;48.884;9.160;2024-03-23T06:41:53;10.20;99.90
3466;DHT22;1747;48.884;9.160;2024-03-23T06:44:20;10.10;99.90
3466;DHT22;1747;48.884;9.160;2024-03-23T06:46:47;10.10;99.90
3466;DHT22;1747;48.884;9.160;2024-03-23T06:49:14;10.10;99.90
3466;DHT22;1747;48.884;9.160;2024-03-23T06:51:41;10.00;99.90
3466;DHT22;1747;48.884;9.160;2024-03-23T06:54:07;10.10;99.90
3466;DHT22;1747;48.884;9.160;2024-03-23T06:56:34;10.10;99.90
3466;DHT22;1747;48.884;9.160;2024-03-23T06:59:01;10.10;99.90
3466;DHT22;1747;48.884;9.160;2024-03-23T07:01:28;10.00;99.90
3466;DHT22;1747;48.884;9.160;2024-03-23T07:03:54;9.90;99.90
3466;DHT22;1747;48.884;9.160;2024-03-23T07:06:21;9.90;99.90
3466;DHT22;1747;48.884;9.160;2024-03-23T07:08:47;9.90;99.90
3466;DHT22;1747;48.884;9.160;2024-03-23T07:11:18;9.90;99.90
3466;DHT22;1747;48.884;9.160;2024-03-23T07:13:45;10.00;99.90
3466;DHT22;1747;48.884;9.160;2024-03-23T07:16:16;10.00;99.90
3466;DHT22;1747;48.884;9.160;2024-03-23T07:18:43;10.00;99.90
3466;DHT22;1747;48.884;9.160;2024-03-23T07:21:11;10.20;99.90
3466;DHT22;1747;48.884;9.160;2024-03-23T07:23:37;10.30;99.90
3466;DHT22;1747;48.884;9.160;2024-03-23T07:26:07;10.40;99.90
3466;DHT22;1747;48.884;9.160;2024-03-23T07:28:34;10.40;99.90
3466;DHT22;1747;48.884;9.160;2024-03-23T07:31:05;10.30;99.90
3466;DHT22;1747;48.884;9.160;2024-03-23T07:33:33;10.30;99.90
3466;DHT22;1747;48.884;9.160;2024-03-23T07:36:00;10.10;99.90
3466;DHT22;1747;48.884;9.160;2024-03-23T07:38:27;10.10;99.90
3466;DHT22;1747;48.884;9.160;2024-03-23T07:41:03;10.20;99.90
3466;DHT22;1747;48.884;9.160;2024-03-23T07:43:29;10.20;99.90
3466;DHT22;1747;48.884;9.160;2024-03-23T07:45:56;10.30;99.90
3466;DHT22;1747;48.884;9.160;2024-03-23T07:48:21;10.30;99.90
3466;DHT22;1747;48.884;9.160;2024-03-23T07:50:58;10.30;99.90
3466;DHT22;1747;48.884;9.160;2024-03-23T07:53:24;10.20;99.90
3466;DHT22;1747;48.884;9.160;2024-03-23T07:55:57;10.20;99.90
3466;DHT22;1747;48.884;9.160;2024-03-23T07:58:25;10.20;99.90
3466;DHT22;1747;48.884;9.160;2024-03-23T08:00:51;10.20;99.90
3466;DHT22;1747;48.884;9.160;2024-03-23T08:03:17;10.10;99.90
3466;DHT22;1747;48.884;9.160;2024-03-23T08:05:43;10.00;99.90
3466;DHT22;1747;48.884;9.160;2024-03-23T08:08:12;9.80;99.90
3466;DHT22;1747;48.884;9.160;2024-03-23T08:10:47;9.90;99.90
3466;DHT22;1747;48.884;9.160;2024-03-23T08:13:14;10.00;99.90
3466;DHT22;1747;48.884;9.160;2024-03-23T08:15:40;10.10;99.90
3466;DHT22;1747;48.884;9.160;2024-03-23T08:18:07;10.20;99.90
3466;DHT22;1747;48.884;9.160;2024-03-23T08:20:33;10.20;99.90
3466;DHT22;1747;48.884;9.160;2024-03-23T08:23:00;10.10;99.90
3466;DHT22;1747;48.884;9.160;2024-03-23T08:25:27;10.00;99.90
3466;DHT22;1747;48.884;9.160;2024-03-23T08:27:54;9.90;99.90
3466;DHT22;1747;48.884;9.160;2024-03-23T08:33:10;10.10;99.90
3466;DHT22;1747;48.884;9.160;2024-03-23T08:35:36;10.10;99.90
3466;DHT22;1747;48.884;9.160;2024-03-23T08:38:03;10.30;99.90
3466;DHT22;1747;48.884;9.160;2024-03-23T08:40:30;10.60;99.90
3466;DHT22;1747;48.884;9.160;2024-03-23T08:42:57;10.60;99.90
3466;DHT22;1747;48.884;9.160;2024-03-23T08:45:24;10.60;99.90
3466;DHT22;1747;48.884;9.160;2024-03-23T08:47:51;10.40;99.90
3466;DHT22;1747;48.884;9.160;2024-03-23T08:50:17;10.30;99.90
3466;DHT22;1747;48.884;9.160;2024-03-23T08:52:44;10.40;99.90
3466;DHT22;1747;48.884;9.160;2024-03-23T08:55:10;10.40;99.90
3466;DHT22;1747;48.884;9.160;2024-03-23T08:57:38;10.40;99.90
3466;DHT22;1747;48.884;9.160;2024-03-23T09:00:05;10.30;99.90
3466;DHT22;1747;48.884;9.160;2024-03-23T09:02:34;10.30;99.90
3466;DHT22;1747;48.884;9.160;2024-03-23T09:05:00;10.20;99.90
3466;DHT22;1747;48.884;9.160;2024-03-23T09:07:30;10.10;99.90
3466;DHT22;1747;48.884;9.160;2024-03-23T09:09:58;10.20;99.90
3466;DHT22;1747;48.884;9.160;2024-03-23T09:12:25;10.30;99.90
3466;DHT22;1747;48.884;9.160;2024-03-23T09:14:52;10.30;99.90
3466;DHT22;1747;48.884;9.160;2024-03-23T09:17:19;10.50;99.90
3466;DHT22;1747;48.884;9.160;2024-03-23T09:19:45;10.50;99.90
3466;DHT22;1747;48.884;9.160;2024-03-23T09:22:12;10.60;99.90
3466;DHT22;1747;48.884;9.160;2024-03-23T09:24:39;10.60;99.90
3466;DHT22;1747;48.884;9.160;2024-03-23T09:27:09;10.60;99.90
3466;DHT22;1747;48.884;9.160;2024-03-23T09:29:35;10.40;99.90
3466;DHT22;1747;48.884;9.160;2024-03-23T09:32:04;10.30;99.90
3466;DHT22;1747;48.884;9.160;2024-03-23T09:34:30;10.20;99.90
3466;DHT22;1747;48.884;9.160;2024-03-23T09:36:56;10.00;99.90
3466;DHT22;1747;48.884;9.160;2024-03-23T09:39:22;9.90;99.90
3466;DHT22;1747;48.884;9.160;2024-03-23T09:41:49;10.00;99.90
3466;DHT22;1747;48.884;9.160;2024-03-23T09:44:16;9.90;99.90
3466;DHT22;1747;48.884;9.160;2024-03-23T09:46:42;10.00;99.90
3466;DHT22;1747;48.884;9.160;2024-03-23T09:49:10;10.00;99.90
3466;DHT22;1747;48.884;9.160;2024-03-23T09:51:37;10.10;99.90
3466;DHT22;1747;48.884;9.160;2024-03-23T09:54:03;10.30;99.90
3466;DHT22;1747;48.884;9.160;2024-03-23T09:56:30;10.60;99.90
3466;DHT22;1747;48.884;9.160;2024-03-23T09:59:02;10.80;99.90
3466;DHT22;1747;48.884;9.160;2024-03-23T10:01:30;11.20;99.90
3466;DHT22;1747;48.884;9.160;2024-03-23T10:03:55;11.40;99.90
3466;DHT22;1747;48.884;9.160;2024-03-23T10:06:24;11.40;99.90
3466;DHT22;1747;48.884;9.160;2024-03-23T10:08:50;11.40;99.90
3466;DHT22;1747;48.884;9.160;2024-03-23T10:11:19;11.30;99.90
3466;DHT22;1747;48.884;9.160;2024-03-23T10:13:44;11.10;99.90
3466;DHT22;1747;48.884;9.160;2024-03-23T10:16:20;11.10;99.90
3466;DHT22;1747;48.884;9.160;2024-03-23T10:18:46;11.30;99.90
3466;DHT22;1747;48.884;9.160;2024-03-23T10:21:14;11.10;99.90
3466;DHT22;1747;48.884;9.160;2024-03-23T10:23:43;11.10;99.90
3466;DHT22;1747;48.884;9.160;2024-03-23T10:26:17;11.00;99.90
3466;DHT22;1747;48.884;9.160;2024-03-23T10:28:54;10.90;99.90
3466;DHT22;1747;48.884;9.160;2024-03-23T10:31:22;11.00;99.90
3466;DHT22;1747;48.884;9.160;2024-03-23T10:33:50;11.10;99.90
3466;DHT22;1747;48.884;9.160;2024-03-23T10:36:20;11.10;99.90
3466;DHT22;1747;48.884;9.160;2024-03-23T10:38:48;11.10;99.90
3466;DHT22;1747;48.884;9.160;2024-03-23T10:41:16;11.00;99.90
3466;DHT22;1747;48.884;9.160;2024-03-23T10:43:45;10.90;99.90
3466;DHT22;1747;48.884;9.160;2024-03-23T10:46:12;10.90;99.90
3466;DHT22;1747;48.884;9.160;2024-03-23T10:48:38;10.90;99.90
3466;DHT22;1747;48.884;9.160;2024-03-23T10:51:07;10.60;99.90
3466;DHT22;1747;48.884;9.160;2024-03-23T10:53:34;9.90;99.90
3466;DHT22;1747;48.884;9.160;2024-03-23T10:56:04;9.30;99.90
3466;DHT22;1747;48.884;9.160;2024-03-23T10:58:34;8.60;99.90
3466;DHT22;1747;48.884;9.160;2024-03-23T11:01:03;8.20;99.90
3466;DHT22;1747;48.884;9.160;2024-03-23T11:03:30;7.90;99.90
3466;DHT22;1747;48.884;9.160;2024-03-23T11:05:58;7.60;99.90
3466;DHT22;1747;48.884;9.160;2024-03-23T11:08:32;7.40;99.90
3466;DHT22;1747;48.884;9.160;2024-03-23T11:11:17;7.40;99.90
3466;DHT22;1747;48.884;9.160;2024-03-23T11:13:44;7.30;99.90
3466;DHT22;1747;48.884;9.160;2024-03-23T11:16:15;7.40;99.90
3466;DHT22;1747;48.884;9.160;2024-03-23T11:18:41;7.50;99.90
3466;DHT22;1747;48.884;9.160;2024-03-23T11:21:09;7.70;99.90
3466;DHT22;1747;48.884;9.160;2024-03-23T11:23:35;8.00;99.90
3466;DHT22;1747;48.884;9.160;2024-03-23T11:26:02;8.00;99.90
3466;DHT22;1747;48.884;9.160;2024-03-23T11:28:30;8.20;99.90
3466;DHT22;1747;48.884;9.160;2024-03-23T11:30:57;8.40;99.90
3466;DHT22;1747;48.884;9.160;2024-03-23T11:33:23;8.70;99.90
3466;DHT22;1747;48.884;9.160;2024-03-23T11:35:50;9.00;99.90
3466;DHT22;1747;48.884;9.160;2024-03-23T11:38:18;9.30;99.90
3466;DHT22;1747;48.884;9.160;2024-03-23T11:40:47;9.40;99.90
3466;DHT22;1747;48.884;9.160;2024-03-23T11:43:13;9.40;99.90
3466;DHT22;1747;48.884;9.160;2024-03-23T11:45:43;9.50;99.90
3466;DHT22;1747;48.884;9.160;2024-03-23T11:48:10;9.60;99.90
3466;DHT22;1747;48.884;9.160;2024-03-23T11:50:39;9.60;99.90
3466;DHT22;1747;48.884;9.160;2024-03-23T11:53:15;9.70;99.90
3466;DHT22;1747;48.884;9.160;2024-03-23T11:55:46;9.80;99.90
3466;DHT22;1747;48.884;9.160;2024-03-23T11:58:12;9.90;99.90
3466;DHT22;1747;48.884;9.160;2024-03-23T12:00:39;10.00;99.90
3466;DHT22;1747;48.884;9.160;2024-03-23T12:03:07;9.90;99.90
3466;DHT22;1747;48.884;9.160;2024-03-23T12:05:36;9.80;99.90
3466;DHT22;1747;48.884;9.160;2024-03-23T12:08:20;9.80;99.90
3466;DHT22;1747;48.884;9.160;2024-03-23T12:10:49;9.80;99.90
3466;DHT22;1747;48.884;9.160;2024-03-23T12:13:17;9.60;99.90
3466;DHT22;1747;48.884;9.160;2024-03-23T12:15:44;9.40;99.90
3466;DHT22;1747;48.884;9.160;2024-03-23T12:18:12;9.40;99.90
3466;DHT22;1747;48.884;9.160;2024-03-23T12:20:40;9.40;99.90
3466;DHT22;1747;48.884;9.160;2024-03-23T12:23:07;9.40;99.90
3466;DHT22;1747;48.884;9.160;2024-03-23T12:25:35;9.50;99.90
3466;DHT22;1747;48.884;9.160;2024-03-23T12:28:01;10.10;99.90
3466;DHT22;1747;48.884;9.160;2024-03-23T12:30:28;10.20;99.90
3466;DHT22;1747;48.884;9.160;2024-03-23T12:32:54;10.20;99.90
3466;DHT22;1747;48.884;9.160;2024-03-23T12:35:23;10.20;99.90
3466;DHT22;1747;48.884;9.160;2024-03-23T12:37:48;9.90;99.90
3466;DHT22;1747;48.884;9.160;2024-03-23T12:40:15;9.90;99.90
3466;DHT22;1747;48.884;9.160;2024-03-23T12:42:41;10.10;99.90
3466;DHT22;1747;48.884;9.160;2024-03-23T12:45:08;10.30;99.90
3466;DHT22;1747;48.884;9.160;2024-03-23T12:47:34;10.70;99.90
3466;DHT22;1747;48.884;9.160;2024-03-23T12:50:01;11.00;99.90
3466;DHT22;1747;48.884;9.160;2024-03-23T12:52:29;11.40;99.90
3466;DHT22;1747;48.884;9.160;2024-03-23T12:54:55;11.40;99.90
3466;DHT22;1747;48.884;9.160;2024-03-23T12:57:23;11.30;99.90
3466;DHT22;1747;48.884;9.160;2024-03-23T12:59:50;11.80;99.90
3466;DHT22;1747;48.884;9.160;2024-03-23T13:02:17;12.50;99.90
3466;DHT22;1747;48.884;9.160;2024-03-23T13:04:46;12.90;99.90
3466;DHT22;1747;48.884;9.160;2024-03-23T13:07:12;13.00;99.90
3466;DHT22;1747;48.884;9.160;2024-03-23T13:09:40;13.10;99.90
3466;DHT22;1747;48.884;9.160;2024-03-23T13:12:07;12.90;99.90
3466;DHT22;1747;48.884;9.160;2024-03-23T13:14:34;12.70;99.90
3466;DHT22;1747;48.884;9.160;2024-03-23T13:16:59;12.70;99.90
3466;DHT22;1747;48.884;9.160;2024-03-23T13:19:27;12.90;99.90
3466;DHT22;1747;48.884;9.160;2024-03-23T13:21:56;13.10;99.90
3466;DHT22;1747;48.884;9.160;2024-03-23T13:24:23;13.30;99.90
3466;DHT22;1747;48.884;9.160;2024-03-23T13:26:51;13.60;99.90
3466;DHT22;1747;48.884;9.160;2024-03-23T13:29:18;13.80;99.90
3466;DHT22;1747;48.884;9.160;2024-03-23T13:31:45;14.40;99.90
3466;DHT22;1747;48.884;9.160;2024-03-23T13:34:12;15.00;99.90
3466;DHT22;1747;48.884;9.160;2024-03-23T13:36:40;15.50;99.90
3466;DHT22;1747;48.884;9.160;2024-03-23T13:39:07;16.20;99.70
3466;DHT22;1747;48.884;9.160;2024-03-23T13:41:38;16.70;97.30
3466;DHT22;1747;48.884;9.160;2024-03-23T13:44:07;17.10;96.70
3466;DHT22;1747;48.884;9.160;2024-03-23T13:46:33;17.20;97.60
3466;DHT22;1747;48.884;9.160;2024-03-23T13:49:00;17.00;95.50
3466;DHT22;1747;48.884;9.160;2024-03-23T13:51:26;16.50;94.90
3466;DHT22;1747;48.884;9.160;2024-03-23T13:53:53;15.40;96.20
3466;DHT22;1747;48.884;9.160;2024-03-23T13:56:20;14.30;99.90
3466;DHT22;1747;48.884;9.160;2024-03-23T13:58:47;13.10;99.90
3466;DHT22;1747;48.884;9.160;2024-03-23T14:01:17;12.10;99.90
3466;DHT22;1747;48.884;9.160;2024-03-23T14:03:44;11.40;99.90
3466;DHT22;1747;48.884;9.160;2024-03-23T14:06:10;10.70;99.90
3466;DHT22;1747;48.884;9.160;2024-03-23T14:08:37;10.10;99.90
3466;DHT22;1747;48.884;9.160;2024-03-23T14:11:05;9.50;99.90
3466;DHT22;1747;48.884;9.160;2024-03-23T14:13:32;9.10;99.90
3466;DHT22;1747;48.884;9.160;2024-03-23T14:15:58;8.60;99.90
3466;DHT22;1747;48.884;9.160;2024-03-23T14:18:27;8.40;99.90
3466;DHT22;1747;48.884;9.160;2024-03-23T14:20:56;8.30;99.90
3466;DHT22;1747;48.884;9.160;2024-03-23T14:23:25;8.20;99.90
3466;DHT22;1747;48.884;9.160;2024-03-23T14:25:53;8.10;99.90
3466;DHT22;1747;48.884;9.160;2024-03-23T14:28:20;8.10;99.90
3466;DHT22;1747;48.884;9.160;2024-03-23T14:30:47;8.20;99.90
3466;DHT22;1747;48.884;9.160;2024-03-23T14:33:15;8.20;99.90
3466;DHT22;1747;48.884;9.160;2024-03-23T14:35:42;8.90;99.90
3466;DHT22;1747;48.884;9.160;2024-03-23T14:38:09;9.90;99.90
3466;DHT22;1747;48.884;9.160;2024-03-23T14:40:35;11.10;99.90
3466;DHT22;1747;48.884;9.160;2024-03-23T14:43:02;12.10;99.90
3466;DHT22;1747;48.884;9.160;2024-03-23T14:45:28;13.00;99.90
3466;DHT22;1747;48.884;9.160;2024-03-23T14:47:54;13.70;99.90
3466;DHT22;1747;48.884;9.160;2024-03-23T14:50:20;14.30;99.90
3466;DHT22;1747;48.884;9.160;2024-03-23T14:52:48;14.80;99.90
3466;DHT22;1747;48.884;9.160;2024-03-23T14:55:16;14.30;99.90
3466;DHT22;1747;48.884;9.160;2024-03-23T14:57:43;13.60;99.90
3466;DHT22;1747;48.884;9.160;2024-03-23T15:00:10;12.80;99.90
3466;DHT22;1747;48.884;9.160;2024-03-23T15:02:37;12.10;99.90
3466;DHT22;1747;48.884;9.160;2024-03-23T15:05:04;11.30;99.90
3466;DHT22;1747;48.884;9.160;2024-03-23T15:07:34;10.70;99.90
3466;DHT22;1747;48.884;9.160;2024-03-23T15:10:01;10.20;99.90
3466;DHT22;1747;48.884;9.160;2024-03-23T15:12:30;9.90;99.90
3466;DHT22;1747;48.884;9.160;2024-03-23T15:14:58;9.70;99.90
3466;DHT22;1747;48.884;9.160;2024-03-23T15:17:25;9.80;99.90
3466;DHT22;1747;48.884;9.160;2024-03-23T15:19:51;10.10;99.90
3466;DHT22;1747;48.884;9.160;2024-03-23T15:22:19;10.40;99.90
3466;DHT22;1747;48.884;9.160;2024-03-23T15:24:45;10.90;99.90
3466;DHT22;1747;48.884;9.160;2024-03-23T15:27:13;11.50;99.90
3466;DHT22;1747;48.884;9.160;2024-03-23T15:29:39;12.20;99.90
3466;DHT22;1747;48.884;9.160;2024-03-23T15:32:07;12.50;99.90
3466;DHT22;1747;48.884;9.160;2024-03-23T15:34:33;13.00;99.90
3466;DHT22;1747;48.884;9.160;2024-03-23T15:37:00;13.40;99.90
3466;DHT22;1747;48.884;9.160;2024-03-23T15:39:26;13.40;99.90
3466;DHT22;1747;48.884;9.160;2024-03-23T15:41:54;13.30;99.90
3466;DHT22;1747;48.884;9.160;2024-03-23T15:44:21;13.50;99.90
3466;DHT22;1747;48.884;9.160;2024-03-23T15:46:48;13.70;99.90
3466;DHT22;1747;48.884;9.160;2024-03-23T15:49:14;14.00;99.90
3466;DHT22;1747;48.884;9.160;2024-03-23T15:51:40;14.00;99.90
3466;DHT22;1747;48.884;9.160;2024-03-23T15:54:09;13.90;99.90
3466;DHT22;1747;48.884;9.160;2024-03-23T15:56:36;13.50;99.90
3466;DHT22;1747;48.884;9.160;2024-03-23T15:59:02;13.20;99.90
3466;DHT22;1747;48.884;9.160;2024-03-23T16:01:33;13.30;99.90
3466;DHT22;1747;48.884;9.160;2024-03-23T16:03:59;13.70;99.90
3466;DHT22;1747;48.884;9.160;2024-03-23T16:06:26;14.10;99.90
3466;DHT22;1747;48.884;9.160;2024-03-23T16:08:52;14.40;99.90
3466;DHT22;1747;48.884;9.160;2024-03-23T16:11:19;14.70;99.90
3466;DHT22;1747;48.884;9.160;2024-03-23T16:13:45;14.80;99.90
3466;DHT22;1747;48.884;9.160;2024-03-23T16:16:13;14.60;99.90
3466;DHT22;1747;48.884;9.160;2024-03-23T16:18:40;14.50;99.90
3466;DHT22;1747;48.884;9.160;2024-03-23T16:21:09;14.30;99.90
3466;DHT22;1747;48.884;9.160;2024-03-23T16:23:35;13.90;99.90
3466;DHT22;1747;48.884;9.160;2024-03-23T16:26:04;13.40;99.90
3466;DHT22;1747;48.884;9.160;2024-03-23T16:28:31;12.90;99.90
3466;DHT22;1747;48.884;9.160;2024-03-23T16:31:00;12.50;99.90
3466;DHT22;1747;48.884;9.160;2024-03-23T16:33:26;12.10;99.90
3466;DHT22;1747;48.884;9.160;2024-03-23T16:35:59;11.70;99.90
3466;DHT22;1747;48.884;9.160;2024-03-23T16:38:25;11.40;99.90
3466;DHT22;1747;48.884;9.160;2024-03-23T16:40:54;10.90;99.90
3466;DHT22;1747;48.884;9.160;2024-03-23T16:43:20;10.60;99.90
3466;DHT22;1747;48.884;9.160;2024-03-23T16:45:55;10.20;99.90
3466;DHT22;1747;48.884;9.160;2024-03-23T16:48:22;9.80;99.90
3466;DHT22;1747;48.884;9.160;2024-03-23T16:50:49;9.40;99.90
3466;DHT22;1747;48.884;9.160;2024-03-23T16:53:16;9.20;99.90
3466;DHT22;1747;48.884;9.160;2024-03-23T16:55:44;9.00;99.90
3466;DHT22;1747;48.884;9.160;2024-03-23T16:58:10;8.80;99.90
3466;DHT22;1747;48.884;9.160;2024-03-23T17:00:37;8.70;99.90